Time;durP1;ratioP1;P1;durP2;ratioP2;P2;SDS_P1;SDS_P2;PMS_P1;PMS_P2;Temp;Humidity;BMP_temperature;BMP_pressure;BME280_temperature;BME280_humidity;BME280_pressure;Samples;Min_cycle;Max_cycle;Signal;HPM_P1;HPM_P2
2022/11/24 00:02:04;;;;;;;87.93;41.53;;;2.60;99.90;;;;;;5042785;28;20209;-71
2022/11/24 00:04:29;;;;;;;95.23;43.27;;;2.60;99.90;;;;;;5044503;28;20219;-71
2022/11/24 00:06:55;;;;;;;90.77;42.03;;;2.60;99.90;;;;;;5039096;28;20206;-72
2022/11/24 00:09:21;;;;;;;90.10;44.03;;;2.80;99.90;;;;;;5048595;28;20191;-72
2022/11/24 00:11:46;;;;;;;86.53;41.67;;;2.70;99.90;;;;;;5040389;28;20556;-73
2022/11/24 00:14:12;;;;;;;90.40;42.60;;;2.60;99.90;;;;;;5048189;28;20219;-72
2022/11/24 00:16:38;;;;;;;86.37;41.93;;;2.70;99.90;;;;;;5046780;28;20297;-73
2022/11/24 00:19:10;;;;;;;86.10;42.90;;;2.60;99.90;;;;;;5046124;28;20230;-72
2022/11/24 00:21:36;;;;;;;88.37;41.93;;;2.50;99.90;;;;;;5054481;28;20227;-72
2022/11/24 00:24:02;;;;;;;87.90;41.93;;;2.50;99.90;;;;;;5046020;28;20184;-73
2022/11/24 00:26:30;;;;;;;86.37;40.23;;;2.50;99.90;;;;;;5051740;28;20290;-72
2022/11/24 00:28:59;;;;;;;84.90;41.17;;;2.50;99.90;;;;;;5050790;28;20216;-72
2022/11/24 00:31:30;;;;;;;92.43;42.60;;;2.40;99.90;;;;;;5045643;28;20291;-73
2022/11/24 00:33:58;;;;;;;92.57;44.63;;;2.30;99.90;;;;;;5048727;28;20686;-73
2022/11/24 00:36:26;;;;;;;92.13;43.43;;;2.40;99.90;;;;;;5048718;28;20179;-73
2022/11/24 00:38:54;;;;;;;98.33;44.90;;;2.30;99.90;;;;;;5064125;28;20196;-73
2022/11/24 00:41:20;;;;;;;87.60;43.73;;;2.30;99.90;;;;;;5039007;28;20685;-70
2022/11/24 00:43:45;;;;;;;95.03;43.27;;;2.40;99.90;;;;;;5038602;28;20207;-70
2022/11/24 00:46:11;;;;;;;93.73;43.80;;;2.40;99.90;;;;;;5046678;28;20234;-71
2022/11/24 00:48:37;;;;;;;93.23;42.43;;;2.30;99.90;;;;;;5048230;28;20226;-70
2022/11/24 00:51:07;;;;;;;95.50;44.20;;;2.30;99.90;;;;;;5048898;28;20204;-72
2022/11/24 00:53:33;;;;;;;96.70;45.53;;;2.30;99.90;;;;;;5044393;28;20309;-73
2022/11/24 00:55:59;;;;;;;89.90;42.93;;;2.40;99.90;;;;;;5050059;28;20238;-72
2022/11/24 00:58:25;;;;;;;88.73;43.37;;;2.30;99.90;;;;;;5045688;28;20715;-71
2022/11/24 01:00:51;;;;;;;93.20;45.17;;;2.30;99.90;;;;;;5047424;28;20226;-70
2022/11/24 01:03:19;;;;;;;89.63;43.50;;;2.50;99.90;;;;;;5041259;28;20191;-71
2022/11/24 01:05:45;;;;;;;82.10;40.40;;;2.40;99.90;;;;;;5049642;28;20681;-71
2022/11/24 01:08:11;;;;;;;94.00;44.03;;;2.50;99.90;;;;;;5043537;28;20222;-72
2022/11/24 01:10:37;;;;;;;94.43;43.60;;;2.50;99.90;;;;;;5046634;28;20239;-72
2022/11/24 01:13:03;;;;;;;98.10;42.77;;;2.40;99.90;;;;;;5041174;28;20355;-69
2022/11/24 01:15:29;;;;;;;85.07;42.90;;;2.40;99.90;;;;;;5040611;28;20293;-69
2022/11/24 01:17:55;;;;;;;84.97;42.37;;;2.40;99.90;;;;;;5044803;28;20211;-70
2022/11/24 01:20:21;;;;;;;85.13;42.80;;;2.40;99.90;;;;;;5047972;28;20223;-71
2022/11/24 01:22:48;;;;;;;79.37;37.60;;;2.40;99.90;;;;;;5049493;28;20214;-70
2022/11/24 01:25:14;;;;;;;77.83;39.13;;;2.40;99.90;;;;;;5046884;28;20741;-71
2022/11/24 01:27:40;;;;;;;84.73;41.03;;;2.40;99.90;;;;;;5043830;28;20219;-71
2022/11/24 01:30:06;;;;;;;91.10;42.17;;;2.30;99.90;;;;;;5050347;28;20221;-70
2022/11/24 01:32:34;;;;;;;87.57;42.07;;;2.30;99.90;;;;;;5046515;28;20553;-70
2022/11/24 01:35:04;;;;;;;85.50;40.80;;;2.30;99.90;;;;;;5048701;28;20736;-70
2022/11/24 01:37:30;;;;;;;89.00;43.27;;;2.40;99.90;;;;;;5050614;28;20655;-71
2022/11/24 01:39:56;;;;;;;84.43;40.90;;;2.30;99.90;;;;;;5048258;28;20592;-70
2022/11/24 01:42:21;;;;;;;91.43;42.07;;;2.30;99.90;;;;;;5051934;28;20178;-71
2022/11/24 01:44:50;;;;;;;94.80;42.03;;;2.20;99.90;;;;;;5051803;28;20180;-70
2022/11/24 01:47:32;;;;;;;83.40;42.20;;;2.30;99.90;;;;;;5049489;28;20227;-70
2022/11/24 01:50:01;;;;;;;98.37;41.77;;;2.30;99.90;;;;;;5049413;28;20210;-70
2022/11/24 01:52:35;;;;;;;84.67;41.47;;;2.20;99.90;;;;;;5050102;28;20207;-70
2022/11/24 01:55:07;;;;;;;85.00;41.93;;;2.30;99.90;;;;;;5045804;28;20207;-70
2022/11/24 01:57:42;;;;;;;91.33;40.30;;;2.40;99.90;;;;;;5050742;28;20224;-70
2022/11/24 02:00:10;;;;;;;88.43;41.20;;;2.40;99.90;;;;;;5048627;28;20204;-70
2022/11/24 02:02:36;;;;;;;88.40;39.77;;;2.40;99.90;;;;;;5046884;28;20670;-70
2022/11/24 02:05:08;;;;;;;91.47;40.93;;;2.30;99.90;;;;;;5047174;28;20222;-70
2022/11/24 02:07:35;;;;;;;90.43;42.37;;;2.40;99.90;;;;;;5043832;28;20296;-68
2022/11/24 02:10:09;;;;;;;89.83;40.43;;;2.50;99.90;;;;;;5046899;28;20212;-70
2022/11/24 02:12:37;;;;;;;86.10;40.90;;;2.50;99.90;;;;;;5051184;28;20260;-70
2022/11/24 02:15:03;;;;;;;78.70;38.03;;;2.40;99.90;;;;;;5045152;28;20547;-70
2022/11/24 02:17:29;;;;;;;82.97;39.33;;;2.30;99.90;;;;;;5051060;28;20215;-70
2022/11/24 02:20:06;;;;;;;86.30;40.33;;;2.20;99.90;;;;;;5047121;28;20695;-69
2022/11/24 02:22:55;;;;;;;88.87;39.67;;;2.30;99.90;;;;;;5048566;28;20212;-71
2022/11/24 02:25:38;;;;;;;85.43;39.50;;;2.30;99.90;;;;;;5043100;28;20207;-71
2022/11/24 02:28:11;;;;;;;90.30;40.27;;;2.20;99.90;;;;;;5043833;28;20231;-70
2022/11/24 02:30:37;;;;;;;82.40;39.93;;;2.30;99.90;;;;;;5050760;28;20969;-71
2022/11/24 02:33:03;;;;;;;90.63;41.63;;;2.30;99.90;;;;;;5048394;28;20189;-70
2022/11/24 02:35:28;;;;;;;87.53;40.63;;;2.20;99.90;;;;;;5044979;28;20218;-69
2022/11/24 02:37:54;;;;;;;91.57;40.07;;;2.30;99.90;;;;;;5049766;28;20218;-70
2022/11/24 02:40:24;;;;;;;96.03;42.43;;;2.20;99.90;;;;;;5050440;28;20315;-70
2022/11/24 02:42:56;;;;;;;82.23;38.80;;;2.10;99.90;;;;;;5046748;28;20211;-70
2022/11/24 02:45:23;;;;;;;92.50;39.93;;;2.20;99.90;;;;;;5044189;28;20254;-71
2022/11/24 02:47:48;;;;;;;84.33;41.30;;;2.10;99.90;;;;;;5047431;28;20203;-70
2022/11/24 02:50:14;;;;;;;93.93;40.60;;;2.10;99.90;;;;;;5046827;28;20248;-70
2022/11/24 02:52:40;;;;;;;88.17;41.07;;;2.10;99.90;;;;;;5044831;28;20286;-71
2022/11/24 02:55:07;;;;;;;85.13;41.83;;;2.10;99.90;;;;;;5046658;28;20205;-68
2022/11/24 02:57:32;;;;;;;95.87;41.07;;;2.10;99.90;;;;;;5046658;28;20216;-71
2022/11/24 02:59:58;;;;;;;90.93;41.93;;;2.10;99.90;;;;;;5044255;28;20201;-70
2022/11/24 03:02:24;;;;;;;106.37;41.23;;;2.10;99.90;;;;;;5044126;28;20253;-70
2022/11/24 03:04:49;;;;;;;96.93;41.37;;;2.00;99.90;;;;;;5042369;28;20215;-70
2022/11/24 03:07:15;;;;;;;87.00;39.90;;;2.00;99.90;;;;;;5048290;28;20225;-71
2022/11/24 03:09:41;;;;;;;83.37;39.57;;;2.00;99.90;;;;;;5044291;28;20204;-71
2022/11/24 03:12:07;;;;;;;84.87;39.63;;;2.00;99.90;;;;;;5043792;28;20262;-70
2022/11/24 03:14:32;;;;;;;82.30;40.40;;;2.00;99.90;;;;;;5064244;23;20231;-75
2022/11/24 03:16:58;;;;;;;91.63;40.77;;;2.00;99.90;;;;;;5023519;28;20720;-74
2022/11/24 03:19:24;;;;;;;93.70;41.40;;;2.00;99.90;;;;;;5030782;28;20214;-75
2022/11/24 03:21:49;;;;;;;89.03;42.60;;;2.00;99.90;;;;;;5023584;28;20206;-75
2022/11/24 03:24:15;;;;;;;91.30;40.30;;;2.00;99.90;;;;;;5029206;28;20204;-75
2022/11/24 03:26:41;;;;;;;97.50;42.10;;;2.00;99.90;;;;;;5026886;28;20168;-75
2022/11/24 03:29:07;;;;;;;99.90;42.60;;;2.10;99.90;;;;;;5021948;28;20714;-75
2022/11/24 03:31:33;;;;;;;88.57;42.23;;;2.20;99.90;;;;;;5027727;28;20200;-75
2022/11/24 03:33:59;;;;;;;94.87;42.43;;;2.20;99.90;;;;;;5020271;28;20212;-75
2022/11/24 03:36:24;;;;;;;94.13;42.57;;;2.20;99.90;;;;;;5021238;28;20208;-75
2022/11/24 03:38:50;;;;;;;94.77;43.23;;;2.20;99.90;;;;;;5026149;28;20251;-75
2022/11/24 03:41:16;;;;;;;83.07;39.67;;;2.20;99.90;;;;;;5024831;28;20223;-76
2022/11/24 03:43:41;;;;;;;85.63;39.90;;;2.20;99.90;;;;;;5022513;28;20213;-76
2022/11/24 03:46:07;;;;;;;83.03;41.40;;;2.10;99.90;;;;;;5021809;28;20240;-74
2022/11/24 03:48:33;;;;;;;89.97;42.37;;;2.20;99.90;;;;;;5025806;28;20204;-75
2022/11/24 03:51:00;;;;;;;93.17;42.50;;;2.20;99.90;;;;;;5018722;28;20204;-75
2022/11/24 03:53:28;;;;;;;82.47;38.10;;;2.10;99.90;;;;;;5028498;28;20211;-74
2022/11/24 03:55:54;;;;;;;97.30;41.40;;;2.10;99.90;;;;;;5022520;28;20216;-75
2022/11/24 03:58:19;;;;;;;93.27;41.10;;;2.00;99.90;;;;;;5026202;28;20219;-75
2022/11/24 04:00:48;;;;;;;88.30;40.67;;;2.00;99.90;;;;;;5024404;28;20314;-75
2022/11/24 04:03:13;;;;;;;91.73;39.50;;;2.00;99.90;;;;;;5022662;28;20180;-75
2022/11/24 04:05:39;;;;;;;84.57;38.67;;;2.10;99.90;;;;;;5029839;28;20206;-76
2022/11/24 04:08:05;;;;;;;76.23;37.43;;;2.10;99.90;;;;;;5024575;28;20211;-75
2022/11/24 04:10:34;;;;;;;94.67;38.93;;;2.10;99.90;;;;;;5028725;28;20215;-75
2022/11/24 04:13:00;;;;;;;84.27;36.70;;;2.00;99.90;;;;;;5027429;28;20220;-75
2022/11/24 04:15:25;;;;;;;89.47;38.43;;;1.90;99.90;;;;;;5024149;28;20274;-75
2022/11/24 04:17:54;;;;;;;81.00;39.17;;;2.00;99.90;;;;;;5023123;28;20717;-74
2022/11/24 04:20:19;;;;;;;82.73;37.37;;;1.90;99.90;;;;;;5023868;28;20562;-75
2022/11/24 04:22:45;;;;;;;84.20;37.00;;;1.90;99.90;;;;;;5026546;28;20290;-75
2022/11/24 04:25:11;;;;;;;91.03;37.63;;;1.90;99.90;;;;;;5025002;28;20213;-74
2022/11/24 04:27:37;;;;;;;93.67;38.60;;;1.80;99.90;;;;;;5023594;28;20302;-75
2022/11/24 04:30:05;;;;;;;85.67;39.47;;;1.80;99.90;;;;;;5018773;28;20259;-75
2022/11/24 04:32:30;;;;;;;82.67;39.73;;;1.90;99.90;;;;;;5025427;28;20740;-75
2022/11/24 04:34:56;;;;;;;92.47;40.53;;;2.00;99.90;;;;;;5019614;28;20220;-74
2022/11/24 04:37:21;;;;;;;80.10;37.80;;;1.90;99.90;;;;;;5025366;28;20686;-76
2022/11/24 04:39:47;;;;;;;95.70;38.43;;;1.80;99.90;;;;;;5025547;28;20230;-74
2022/11/24 04:42:13;;;;;;;95.30;37.97;;;1.90;99.90;;;;;;5025757;28;20249;-75
2022/11/24 04:44:38;;;;;;;86.10;39.70;;;1.80;99.90;;;;;;5025667;28;20253;-75
2022/11/24 04:47:05;;;;;;;83.10;37.67;;;1.90;99.90;;;;;;5022972;28;20212;-74
2022/11/24 04:49:31;;;;;;;82.67;37.07;;;1.90;99.90;;;;;;5023140;28;20693;-73
2022/11/24 04:51:56;;;;;;;88.17;40.27;;;2.00;99.90;;;;;;5019727;28;20345;-74
2022/11/24 04:54:22;;;;;;;84.63;38.00;;;2.00;99.90;;;;;;5026009;28;20214;-75
2022/11/24 04:56:51;;;;;;;85.97;38.13;;;1.90;99.90;;;;;;5018117;28;20193;-74
2022/11/24 04:59:18;;;;;;;78.93;36.10;;;2.00;99.90;;;;;;5027287;28;20308;-75
2022/11/24 05:01:45;;;;;;;93.38;45.28;;;2.10;99.90;;;;;;5023110;28;20420;-73
2022/11/24 05:04:12;;;;;;;79.70;37.47;;;2.10;99.90;;;;;;5019427;28;20567;-74
2022/11/24 05:06:38;;;;;;;69.97;34.60;;;2.20;99.90;;;;;;5024703;28;20204;-73
2022/11/24 05:09:04;;;;;;;64.37;31.87;;;2.00;99.90;;;;;;5027112;28;20188;-74
2022/11/24 05:11:30;;;;;;;63.57;30.47;;;2.00;99.90;;;;;;5021668;28;20228;-75
2022/11/24 05:13:56;;;;;;;61.00;30.03;;;1.80;99.90;;;;;;5026215;28;20310;-74
2022/11/24 05:16:22;;;;;;;68.60;33.83;;;1.80;99.90;;;;;;5028526;28;20698;-74
2022/11/24 05:18:47;;;;;;;62.43;30.90;;;1.70;99.90;;;;;;5024086;28;20207;-74
2022/11/24 05:21:13;;;;;;;63.43;30.63;;;1.70;99.90;;;;;;5022747;28;20294;-73
2022/11/24 05:23:39;;;;;;;68.97;32.20;;;1.80;99.90;;;;;;5025122;28;20222;-74
2022/11/24 05:26:05;;;;;;;64.13;29.90;;;1.90;99.90;;;;;;5025972;28;20204;-74
2022/11/24 05:28:30;;;;;;;62.83;30.63;;;1.90;99.90;;;;;;5021602;28;20207;-74
2022/11/24 05:31:00;;;;;;;60.13;30.10;;;2.00;99.90;;;;;;5021435;28;20211;-75
2022/11/24 05:33:27;;;;;;;65.30;29.80;;;2.00;99.90;;;;;;5020525;28;20662;-74
2022/11/24 05:35:53;;;;;;;60.43;30.30;;;2.00;99.90;;;;;;5017444;28;20207;-74
2022/11/24 05:38:20;;;;;;;62.13;29.20;;;1.90;99.90;;;;;;5022292;28;20244;-75
2022/11/24 05:40:45;;;;;;;53.40;28.53;;;1.90;99.90;;;;;;5016958;28;20233;-75
2022/11/24 05:43:12;;;;;;;57.07;29.03;;;1.90;99.90;;;;;;5021705;28;20779;-75
2022/11/24 05:45:38;;;;;;;59.23;28.03;;;1.90;99.90;;;;;;5020162;28;20216;-75
2022/11/24 05:48:09;;;;;;;56.87;27.40;;;2.00;99.90;;;;;;5020106;28;20257;-71
2022/11/24 05:50:35;;;;;;;59.70;27.87;;;2.00;99.90;;;;;;5020248;28;20209;-71
2022/11/24 05:53:02;;;;;;;51.63;26.00;;;1.90;99.90;;;;;;5017433;28;20593;-71
2022/11/24 05:55:29;;;;;;;52.33;25.50;;;1.90;99.90;;;;;;5020168;28;20830;-71
2022/11/24 05:58:03;;;;;;;51.53;26.27;;;2.00;99.90;;;;;;5017815;28;20726;-72
2022/11/24 06:00:30;;;;;;;52.57;27.60;;;2.00;99.90;;;;;;5021189;28;20254;-72
2022/11/24 06:02:57;;;;;;;52.90;27.00;;;1.90;99.90;;;;;;5017423;28;20260;-72
2022/11/24 06:05:22;;;;;;;51.30;26.57;;;2.00;99.90;;;;;;5016306;28;20738;-71
2022/11/24 06:07:48;;;;;;;51.07;27.17;;;2.00;99.90;;;;;;5028215;28;20204;-72
2022/11/24 06:10:15;;;;;;;51.73;27.10;;;1.90;99.90;;;;;;5024898;28;20209;-71
2022/11/24 06:12:41;;;;;;;51.73;27.57;;;2.00;99.90;;;;;;5024757;28;20687;-70
2022/11/24 06:15:07;;;;;;;59.97;27.17;;;1.90;99.90;;;;;;5021959;28;20219;-71
2022/11/24 06:17:33;;;;;;;52.47;25.93;;;1.90;99.90;;;;;;5023649;28;20277;-72
2022/11/24 06:19:58;;;;;;;57.87;28.30;;;1.90;99.90;;;;;;5020014;28;20656;-73
2022/11/24 06:22:24;;;;;;;59.43;27.93;;;1.90;99.90;;;;;;5026097;28;20242;-72
2022/11/24 06:24:50;;;;;;;52.63;26.83;;;1.80;99.90;;;;;;5029283;28;20553;-71
2022/11/24 06:27:16;;;;;;;51.33;25.33;;;1.80;99.90;;;;;;5021628;28;20210;-72
2022/11/24 06:29:41;;;;;;;51.73;25.53;;;1.80;99.90;;;;;;5021151;28;20173;-73
2022/11/24 06:32:08;;;;;;;46.23;23.70;;;1.80;99.90;;;;;;5028037;28;20725;-72
2022/11/24 06:34:33;;;;;;;46.93;24.03;;;1.80;99.90;;;;;;5022455;28;20226;-73
2022/11/24 06:36:59;;;;;;;45.13;23.73;;;1.80;99.90;;;;;;5024558;28;20228;-70
2022/11/24 06:39:24;;;;;;;46.33;23.90;;;1.70;99.90;;;;;;5017764;28;20582;-72
2022/11/24 06:41:51;;;;;;;50.37;25.40;;;1.80;99.90;;;;;;5023185;28;20172;-72
2022/11/24 06:44:17;;;;;;;55.10;26.73;;;1.90;99.90;;;;;;5024555;28;20215;-70
2022/11/24 06:46:42;;;;;;;50.47;26.63;;;1.80;99.90;;;;;;5019359;28;20211;-69
2022/11/24 06:49:08;;;;;;;51.27;27.33;;;1.90;99.90;;;;;;5024455;28;20197;-72
2022/11/24 06:51:34;;;;;;;50.37;25.17;;;1.90;99.90;;;;;;5025907;28;20204;-72
2022/11/24 06:54:00;;;;;;;48.03;25.87;;;1.80;99.90;;;;;;5023567;28;20200;-73
2022/11/24 06:56:26;;;;;;;50.43;26.53;;;1.80;99.90;;;;;;5027267;28;20688;-73
2022/11/24 06:58:52;;;;;;;50.53;25.40;;;1.70;99.90;;;;;;5024772;28;20208;-73
2022/11/24 07:01:24;;;;;;;56.93;25.10;;;1.70;99.90;;;;;;5025373;28;20602;-72
2022/11/24 07:03:50;;;;;;;53.20;26.00;;;1.50;99.90;;;;;;5025530;28;20205;-73
2022/11/24 07:06:17;;;;;;;47.20;24.87;;;1.70;99.90;;;;;;5021543;28;20196;-72
2022/11/24 07:08:43;;;;;;;56.30;26.70;;;1.70;99.90;;;;;;5025523;28;20639;-71
2022/11/24 07:11:14;;;;;;;51.87;24.77;;;1.70;99.90;;;;;;5021080;28;20671;-73
2022/11/24 07:13:43;;;;;;;51.33;26.70;;;1.70;99.90;;;;;;5019140;28;20209;-73
2022/11/24 07:16:17;;;;;;;46.10;24.27;;;1.70;99.90;;;;;;5017944;28;20218;-73
2022/11/24 07:18:44;;;;;;;55.10;25.70;;;1.80;99.90;;;;;;5027270;28;20205;-73
2022/11/24 07:21:10;;;;;;;50.97;25.40;;;1.90;99.90;;;;;;5023582;28;20704;-75
2022/11/24 07:23:36;;;;;;;51.43;24.57;;;1.90;99.90;;;;;;5047890;28;20180;-72
2022/11/24 07:26:03;;;;;;;49.77;25.40;;;2.00;99.90;;;;;;5025386;28;20215;-72
2022/11/24 07:28:29;;;;;;;54.17;25.63;;;2.00;99.90;;;;;;5023906;28;20230;-73
2022/11/24 07:30:55;;;;;;;48.97;24.57;;;2.00;99.90;;;;;;5024229;28;20208;-73
2022/11/24 07:33:24;;;;;;;52.90;25.47;;;1.90;99.90;;;;;;5024131;28;20209;-73
2022/11/24 07:35:50;;;;;;;46.67;25.03;;;2.00;99.90;;;;;;5020670;28;20215;-73
2022/11/24 07:38:16;;;;;;;49.40;25.37;;;2.00;99.90;;;;;;5028764;28;20215;-72
2022/11/24 07:40:41;;;;;;;45.50;24.03;;;2.10;99.90;;;;;;5024143;28;20224;-73
2022/11/24 07:43:07;;;;;;;46.57;24.80;;;2.20;99.90;;;;;;5026813;28;20219;-72
2022/11/24 07:45:33;;;;;;;47.57;24.13;;;2.20;99.90;;;;;;5023161;28;20212;-72
2022/11/24 07:47:58;;;;;;;47.33;23.87;;;2.20;99.90;;;;;;5024874;28;20547;-72
2022/11/24 07:50:24;;;;;;;44.23;24.27;;;2.20;99.90;;;;;;5026652;28;20262;-72
2022/11/24 07:52:50;;;;;;;50.70;24.77;;;2.30;99.90;;;;;;5026854;28;20295;-72
2022/11/24 07:55:15;;;;;;;50.13;25.33;;;2.10;99.90;;;;;;5022750;28;20212;-72
2022/11/24 07:57:41;;;;;;;51.37;24.50;;;2.10;99.90;;;;;;5026526;28;20318;-72
2022/11/24 08:00:09;;;;;;;58.47;29.77;;;2.00;99.90;;;;;;5026294;28;20578;-73
2022/11/24 08:02:35;;;;;;;50.83;26.10;;;2.00;99.90;;;;;;5029745;28;20679;-75
2022/11/24 08:05:00;;;;;;;45.67;24.77;;;2.10;99.90;;;;;;5022161;28;20248;-72
2022/11/24 08:07:26;;;;;;;46.00;24.33;;;2.20;99.90;;;;;;5024037;28;20219;-75
2022/11/24 08:09:52;;;;;;;49.60;24.53;;;2.20;99.90;;;;;;5024468;28;20330;-72
2022/11/24 08:12:21;;;;;;;49.67;24.67;;;2.20;99.90;;;;;;5024587;28;20192;-74
2022/11/24 08:14:50;;;;;;;42.33;23.63;;;2.30;99.90;;;;;;5025553;28;20211;-72
2022/11/24 08:17:16;;;;;;;46.77;22.83;;;2.40;99.90;;;;;;5023056;28;20227;-74
2022/11/24 08:19:42;;;;;;;45.37;22.80;;;2.50;99.90;;;;;;5025694;28;20275;-72
2022/11/24 08:22:08;;;;;;;42.07;22.87;;;2.60;99.90;;;;;;5019986;28;20220;-74
2022/11/24 08:24:34;;;;;;;43.33;23.77;;;2.60;99.90;;;;;;5027839;28;20216;-73
2022/11/24 08:26:59;;;;;;;43.73;23.30;;;2.60;99.90;;;;;;5024662;28;20203;-73
2022/11/24 08:29:29;;;;;;;47.20;23.67;;;2.60;99.90;;;;;;5022469;28;20209;-73
2022/11/24 08:31:56;;;;;;;46.63;23.70;;;2.60;99.90;;;;;;5024400;28;20208;-72
2022/11/24 08:34:22;;;;;;;42.23;23.03;;;2.70;99.90;;;;;;5016694;28;20208;-72
2022/11/24 08:36:49;;;;;;;42.13;23.13;;;2.70;99.90;;;;;;5013266;28;20212;-73
2022/11/24 08:39:14;;;;;;;45.53;23.27;;;2.80;99.90;;;;;;5024613;28;20201;-73
2022/11/24 08:41:40;;;;;;;40.10;23.03;;;2.90;99.90;;;;;;5025834;28;20631;-73
2022/11/24 08:44:07;;;;;;;39.03;21.13;;;2.90;99.90;;;;;;5023102;28;20212;-72
2022/11/24 08:46:32;;;;;;;39.03;21.87;;;2.90;99.90;;;;;;5023550;28;20553;-73
2022/11/24 08:48:58;;;;;;;40.50;21.53;;;3.00;99.90;;;;;;5023158;28;20220;-73
2022/11/24 08:51:25;;;;;;;39.27;21.80;;;3.00;99.90;;;;;;5018015;28;20302;-71
2022/11/24 08:53:59;;;;;;;40.77;21.10;;;3.10;99.90;;;;;;5020291;28;20182;-73
2022/11/24 08:56:27;;;;;;;37.03;21.43;;;3.10;99.90;;;;;;5021458;28;20205;-73
2022/11/24 08:58:53;;;;;;;39.80;22.17;;;3.00;99.90;;;;;;5017881;28;20201;-75
2022/11/24 09:01:19;;;;;;;43.00;21.53;;;3.00;99.90;;;;;;5016487;28;20222;-71
2022/11/24 09:03:47;;;;;;;39.87;21.03;;;3.00;99.90;;;;;;5012202;28;20217;-74
2022/11/24 09:06:13;;;;;;;37.43;20.43;;;3.10;99.90;;;;;;5015285;28;20191;-74
2022/11/24 09:08:39;;;;;;;37.53;20.23;;;3.10;99.90;;;;;;5015386;28;20180;-73
2022/11/24 09:11:10;;;;;;;42.10;20.67;;;3.20;99.90;;;;;;5016280;28;20224;-74
2022/11/24 09:13:37;;;;;;;35.07;20.10;;;3.10;99.90;;;;;;5014778;28;20204;-75
2022/11/24 09:16:05;;;;;;;37.10;20.00;;;3.20;99.90;;;;;;5010285;28;20213;-74
2022/11/24 09:18:31;;;;;;;36.03;20.07;;;3.30;99.90;;;;;;5011404;28;20729;-75
2022/11/24 09:21:07;;;;;;;37.53;20.47;;;3.20;99.90;;;;;;5014215;28;20189;-75
2022/11/24 09:23:32;;;;;;;38.07;20.73;;;3.20;99.90;;;;;;5026994;28;20201;-75
2022/11/24 09:26:06;;;;;;;36.70;20.77;;;3.10;99.90;;;;;;5019734;28;20699;-73
2022/11/24 09:28:32;;;;;;;35.00;19.90;;;3.30;99.90;;;;;;5013673;28;20642;-74
2022/11/24 09:31:06;;;;;;;36.43;19.47;;;3.30;99.90;;;;;;5012086;28;20211;-74
2022/11/24 09:33:32;;;;;;;31.43;20.37;;;3.50;99.90;;;;;;5020064;28;20566;-74
2022/11/24 09:35:58;;;;;;;33.50;20.00;;;3.40;99.90;;;;;;5016156;28;20720;-73
2022/11/24 09:38:24;;;;;;;37.37;21.20;;;3.50;99.90;;;;;;5016766;28;20238;-76
2022/11/24 09:40:51;;;;;;;37.00;20.90;;;3.60;99.90;;;;;;5013167;28;20617;-73
2022/11/24 09:43:47;;;;;;;38.40;21.33;;;3.70;99.90;;;;;;5015319;28;20265;-74
2022/11/24 09:46:21;;;;;;;38.97;21.77;;;3.80;99.90;;;;;;5017558;28;20243;-73
2022/11/24 09:48:50;;;;;;;37.60;21.13;;;3.90;99.90;;;;;;5018244;28;20611;-73
2022/11/24 09:51:21;;;;;;;38.53;20.80;;;3.80;99.90;;;;;;5020551;28;20228;-73
2022/11/24 09:53:54;;;;;;;38.00;21.30;;;3.70;99.90;;;;;;5020874;28;20639;-74
2022/11/24 09:56:28;;;;;;;39.33;21.77;;;3.80;99.90;;;;;;5018305;28;20652;-74
2022/11/24 09:58:59;;;;;;;39.70;21.90;;;3.90;99.90;;;;;;5016616;28;20208;-73
2022/11/24 10:01:30;;;;;;;35.77;21.07;;;3.80;99.90;;;;;;5017708;28;20617;-74
2022/11/24 10:03:56;;;;;;;36.93;21.33;;;3.80;99.90;;;;;;5015484;28;20216;-72
2022/11/24 10:06:36;;;;;;;31.57;19.73;;;3.70;99.90;;;;;;5018952;28;20241;-73
2022/11/24 10:09:21;;;;;;;40.73;20.83;;;3.70;99.90;;;;;;5015938;28;20176;-72
2022/11/24 10:12:11;;;;;;;41.13;21.27;;;3.80;99.90;;;;;;5016065;28;20212;-72
2022/11/24 10:14:59;;;;;;;41.57;21.57;;;3.90;99.90;;;;;;5017126;28;20274;-73
2022/11/24 10:17:44;;;;;;;40.00;21.30;;;4.10;99.90;;;;;;5012636;28;20317;-74
2022/11/24 10:20:31;;;;;;;39.43;21.23;;;3.90;99.90;;;;;;5018397;28;20245;-73
2022/11/24 10:23:08;;;;;;;46.70;23.20;;;3.90;99.90;;;;;;5019381;28;20322;-73
2022/11/24 10:25:53;;;;;;;59.20;33.63;;;4.10;99.90;;;;;;5017135;28;20269;-73
2022/11/24 10:28:18;;;;;;;37.20;22.23;;;4.20;99.90;;;;;;5020858;28;20231;-75
2022/11/24 10:30:44;;;;;;;34.60;20.90;;;4.30;99.90;;;;;;5015610;28;20205;-73
2022/11/24 10:33:21;;;;;;;43.13;23.37;;;4.40;99.90;;;;;;5017618;28;20683;-74
2022/11/24 10:35:55;;;;;;;38.57;23.17;;;4.60;99.90;;;;;;5019598;28;20192;-74
2022/11/24 10:38:33;;;;;;;38.57;22.57;;;4.60;99.90;;;;;;5023446;28;20212;-78
2022/11/24 10:41:04;;;;;;;34.63;20.53;;;4.70;99.90;;;;;;5021872;28;20212;-77
2022/11/24 10:43:30;;;;;;;38.30;21.27;;;4.70;99.90;;;;;;5027330;28;20295;-75
2022/11/24 10:46:13;;;;;;;39.07;22.90;;;4.70;99.90;;;;;;5024559;28;20686;-77
2022/11/24 10:49:06;;;;;;;41.73;23.40;;;4.70;99.90;;;;;;5019467;28;20216;-75
2022/11/24 10:51:41;;;;;;;39.63;23.07;;;4.60;99.90;;;;;;5046429;22;20926;-71
2022/11/24 10:54:11;;;;;;;38.47;22.93;;;4.70;99.90;;;;;;5026471;28;20275;-71
2022/11/24 10:56:39;;;;;;;39.83;22.07;;;4.90;99.90;;;;;;5031240;28;20630;-70
2022/11/24 10:59:24;;;;;;;35.00;21.60;;;4.90;99.90;;;;;;5023043;28;20781;-73
2022/11/24 11:01:53;;;;;;;41.43;22.80;;;5.10;99.90;;;;;;5033629;28;20250;-71
2022/11/24 11:04:23;;;;;;;43.87;23.83;;;5.00;99.90;;;;;;5023008;28;20215;-75
2022/11/24 11:06:49;;;;;;;36.97;22.87;;;5.10;99.90;;;;;;5024911;28;20668;-76
2022/11/24 11:09:18;;;;;;;41.90;23.03;;;5.20;99.90;;;;;;5022265;28;20590;-75
2022/11/24 11:11:47;;;;;;;38.27;23.57;;;5.30;99.90;;;;;;5017239;28;20231;-73
2022/11/24 11:14:28;;;;;;;45.03;22.53;;;5.20;99.90;;;;;;5022699;28;20244;-75
2022/11/24 11:16:56;;;;;;;42.83;23.30;;;5.20;99.90;;;;;;5022492;28;20232;-74
2022/11/24 11:19:38;;;;;;;39.60;23.27;;;5.30;99.90;;;;;;5026939;28;20262;-74
2022/11/24 11:22:21;;;;;;;39.27;23.57;;;5.40;99.90;;;;;;5021178;28;20669;-75
2022/11/24 11:25:01;;;;;;;41.97;24.33;;;5.40;99.90;;;;;;5020664;28;20208;-75
2022/11/24 11:27:26;;;;;;;40.47;23.37;;;5.30;99.90;;;;;;5025336;28;20212;-75
2022/11/24 11:29:52;;;;;;;41.20;24.10;;;5.30;99.90;;;;;;5019584;28;20180;-75
2022/11/24 11:32:23;;;;;;;39.93;23.17;;;5.30;99.90;;;;;;5027820;28;20271;-76
2022/11/24 11:34:51;;;;;;;41.07;23.63;;;5.20;99.90;;;;;;5023624;28;20201;-75
2022/11/24 11:37:18;;;;;;;39.43;23.57;;;5.20;99.90;;;;;;5020060;28;20213;-75
2022/11/24 11:39:50;;;;;;;46.87;23.53;;;5.20;99.90;;;;;;5021979;28;20248;-72
2022/11/24 11:42:24;;;;;;;39.20;23.23;;;5.30;99.90;;;;;;5025288;28;20258;-75
2022/11/24 11:44:57;;;;;;;42.97;24.87;;;5.40;99.90;;;;;;5020561;28;20259;-76
2022/11/24 11:47:32;;;;;;;46.53;24.43;;;5.40;99.90;;;;;;5022400;28;20219;-73
2022/11/24 11:49:57;;;;;;;38.13;23.27;;;5.50;99.90;;;;;;5022182;28;20214;-71
2022/11/24 11:52:53;;;;;;;38.93;23.13;;;5.50;99.90;;;;;;5018746;28;20221;-73
2022/11/24 11:55:44;;;;;;;44.57;23.53;;;5.50;99.90;;;;;;4986784;28;20215;-72
2022/11/24 11:58:32;;;;;;;38.50;23.00;;;5.50;99.90;;;;;;5015076;28;20263;-72
2022/11/24 12:01:16;;;;;;;42.80;23.70;;;5.50;99.90;;;;;;5019551;28;20767;-72
2022/11/24 12:04:06;;;;;;;36.20;22.80;;;5.60;99.90;;;;;;5017469;28;20220;-70
2022/11/24 12:07:03;;;;;;;39.03;23.43;;;5.50;99.90;;;;;;5023986;28;20686;-70
2022/11/24 12:09:58;;;;;;;36.07;22.23;;;5.50;99.90;;;;;;5021107;28;20223;-70
2022/11/24 12:13:22;;;;;;;35.37;20.90;;;5.50;99.90;;;;;;5018773;28;20228;-77
2022/11/24 12:15:55;;;;;;;36.13;23.03;;;5.50;99.90;;;;;;4964295;28;20215;-78
2022/11/24 12:18:51;;;;;;;39.70;24.03;;;5.50;99.90;;;;;;4961111;28;20225;-74
2022/11/24 12:21:18;;;;;;;35.47;22.00;;;5.60;99.90;;;;;;5004966;28;20317;-74
2022/11/24 12:23:56;;;;;;;38.33;21.70;;;5.50;99.90;;;;;;5027059;28;20180;-71
2022/11/24 12:26:40;;;;;;;42.77;24.47;;;5.50;99.90;;;;;;5020954;28;20221;-70
2022/11/24 12:29:24;;;;;;;35.53;21.00;;;5.50;99.90;;;;;;5036482;28;20634;-72
2022/11/24 12:32:01;;;;;;;37.40;23.53;;;5.50;99.90;;;;;;5021014;28;20630;-77
2022/11/24 12:34:45;;;;;;;40.03;22.57;;;5.60;99.90;;;;;;5024179;28;20570;-73
2022/11/24 12:37:43;;;;;;;35.37;21.67;;;5.60;99.90;;;;;;5026226;28;20283;-77
2022/11/24 12:40:21;;;;;;;35.90;20.43;;;5.80;99.90;;;;;;5014532;28;20204;-75
2022/11/24 12:43:33;;;;;;;40.07;23.23;;;5.90;99.90;;;;;;5026019;28;20266;-75
2022/11/24 12:46:17;;;;;;;37.63;21.13;;;5.90;99.90;;;;;;5015848;28;20675;-75
2022/11/24 12:48:53;;;;;;;38.83;21.43;;;5.90;99.90;;;;;;5026123;28;20200;-74